sensor_id;sensor_type;location;lat;lon;timestamp;pressure;altitude;pressure_sealevel;temperature;humidity
30949;BME280;17637;51.984;21.208;2023-08-07T00:00:13;98653.50;;;15.34;76.45
30949;BME280;17637;51.984;21.208;2023-08-07T00:02:45;98685.97;;;15.85;75.41
30949;BME280;17637;51.984;21.208;2023-08-07T00:05:17;98680.47;;;15.65;75.84
30949;BME280;17637;51.984;21.208;2023-08-07T00:07:49;98687.16;;;15.82;75.42
30949;BME280;17637;51.984;21.208;2023-08-07T00:10:21;98670.13;;;15.93;74.60
30949;BME280;17637;51.984;21.208;2023-08-07T00:12:52;98683.06;;;15.80;76.25
30949;BME280;17637;51.984;21.208;2023-08-07T00:15:24;98675.16;;;15.58;77.67
30949;BME280;17637;51.984;21.208;2023-08-07T00:17:56;98668.66;;;15.54;76.71
30949;BME280;17637;51.984;21.208;2023-08-07T00:20:28;98670.94;;;15.42;76.45
30949;BME280;17637;51.984;21.208;2023-08-07T00:23:00;98669.59;;;15.16;77.41
30949;BME280;17637;51.984;21.208;2023-08-07T00:25:32;98697.09;;;15.57;76.62
30949;BME280;17637;51.984;21.208;2023-08-07T00:28:03;98694.66;;;15.55;76.87
30949;BME280;17637;51.984;21.208;2023-08-07T00:30:35;98660.31;;;15.14;77.39
30949;BME280;17637;51.984;21.208;2023-08-07T00:33:07;98673.66;;;15.49;77.25
30949;BME280;17637;51.984;21.208;2023-08-07T00:35:39;98684.13;;;15.49;76.71
30949;BME280;17637;51.984;21.208;2023-08-07T00:38:11;98659.84;;;15.40;76.41
30949;BME280;17637;51.984;21.208;2023-08-07T00:40:43;98687.19;;;15.52;76.40
30949;BME280;17637;51.984;21.208;2023-08-07T00:43:15;98673.06;;;15.53;77.63
30949;BME280;17637;51.984;21.208;2023-08-07T00:45:47;98664.66;;;15.73;76.74
30949;BME280;17637;51.984;21.208;2023-08-07T00:48:19;98671.75;;;15.94;75.44
30949;BME280;17637;51.984;21.208;2023-08-07T00:50:51;98671.16;;;15.77;76.58
30949;BME280;17637;51.984;21.208;2023-08-07T00:53:23;98584.63;;;15.12;76.80
30949;BME280;17637;51.984;21.208;2023-08-07T00:55:56;98654.16;;;15.36;77.84
30949;BME280;17637;51.984;21.208;2023-08-07T00:58:29;98630.53;;;15.30;78.08
30949;BME280;17637;51.984;21.208;2023-08-07T01:01:02;98655.47;;;15.62;76.51
30949;BME280;17637;51.984;21.208;2023-08-07T01:03:34;98649.97;;;15.57;77.61
30949;BME280;17637;51.984;21.208;2023-08-07T01:06:06;98663.50;;;15.61;77.46
30949;BME280;17637;51.984;21.208;2023-08-07T01:08:38;98662.28;;;15.41;78.23
30949;BME280;17637;51.984;21.208;2023-08-07T01:16:19;98656.06;;;14.68;81.02
30949;BME280;17637;51.984;21.208;2023-08-07T01:18:53;98650.84;;;14.68;81.39
30949;BME280;17637;51.984;21.208;2023-08-07T01:21:26;98664.63;;;14.91;81.24
30949;BME280;17637;51.984;21.208;2023-08-07T01:23:58;98648.50;;;14.88;81.64
30949;BME280;17637;51.984;21.208;2023-08-07T01:26:29;98633.34;;;14.68;81.12
30949;BME280;17637;51.984;21.208;2023-08-07T01:29:12;98661.00;;;14.77;81.49
30949;BME280;17637;51.984;21.208;2023-08-07T01:31:48;98639.56;;;14.82;81.79
30949;BME280;17637;51.984;21.208;2023-08-07T01:34:22;98664.44;;;14.93;81.26
30949;BME280;17637;51.984;21.208;2023-08-07T01:36:57;98688.38;;;15.20;79.76
30949;BME280;17637;51.984;21.208;2023-08-07T01:39:31;98681.69;;;15.02;79.99
30949;BME280;17637;51.984;21.208;2023-08-07T01:42:03;98661.31;;;14.98;80.40
30949;BME280;17637;51.984;21.208;2023-08-07T01:44:36;98678.63;;;15.29;79.96
30949;BME280;17637;51.984;21.208;2023-08-07T01:47:08;98662.28;;;14.82;80.92
30949;BME280;17637;51.984;21.208;2023-08-07T01:49:40;98673.56;;;14.82;80.62
30949;BME280;17637;51.984;21.208;2023-08-07T01:52:12;98674.66;;;15.03;81.06
30949;BME280;17637;51.984;21.208;2023-08-07T01:54:45;98624.09;;;14.57;81.65
30949;BME280;17637;51.984;21.208;2023-08-07T01:57:17;98633.50;;;14.82;80.93
30949;BME280;17637;51.984;21.208;2023-08-07T01:59:49;98640.41;;;14.59;82.82
30949;BME280;17637;51.984;21.208;2023-08-07T02:02:21;98652.53;;;14.90;81.47
30949;BME280;17637;51.984;21.208;2023-08-07T02:04:52;98634.97;;;14.99;81.43
30949;BME280;17637;51.984;21.208;2023-08-07T02:07:24;98669.97;;;15.13;80.96
30949;BME280;17637;51.984;21.208;2023-08-07T02:09:57;98671.66;;;15.06;81.10
30949;BME280;17637;51.984;21.208;2023-08-07T02:12:28;98652.19;;;14.79;80.86
30949;BME280;17637;51.984;21.208;2023-08-07T02:15:04;98692.59;;;14.91;81.43
30949;BME280;17637;51.984;21.208;2023-08-07T02:17:37;98699.63;;;14.90;82.12
30949;BME280;17637;51.984;21.208;2023-08-07T02:20:10;98709.47;;;14.88;81.16
30949;BME280;17637;51.984;21.208;2023-08-07T02:22:42;98703.13;;;14.68;82.00
30949;BME280;17637;51.984;21.208;2023-08-07T02:25:15;98698.72;;;14.83;81.54
30949;BME280;17637;51.984;21.208;2023-08-07T02:27:47;98697.69;;;14.69;81.71
30949;BME280;17637;51.984;21.208;2023-08-07T02:30:18;98704.66;;;14.54;81.70
30949;BME280;17637;51.984;21.208;2023-08-07T02:32:50;98698.56;;;14.62;81.55
30949;BME280;17637;51.984;21.208;2023-08-07T02:35:22;98708.50;;;14.66;81.36
30949;BME280;17637;51.984;21.208;2023-08-07T02:37:54;98713.56;;;14.68;81.36
30949;BME280;17637;51.984;21.208;2023-08-07T02:40:26;98722.91;;;15.00;80.77
30949;BME280;17637;51.984;21.208;2023-08-07T02:42:58;98704.84;;;14.90;81.18
30949;BME280;17637;51.984;21.208;2023-08-07T02:45:29;98688.81;;;14.93;80.38
30949;BME280;17637;51.984;21.208;2023-08-07T02:48:01;98680.06;;;14.63;80.80
30949;BME280;17637;51.984;21.208;2023-08-07T02:50:33;98712.53;;;15.07;81.65
30949;BME280;17637;51.984;21.208;2023-08-07T02:53:05;98691.50;;;14.70;81.24
30949;BME280;17637;51.984;21.208;2023-08-07T02:55:37;98685.38;;;14.78;81.56
30949;BME280;17637;51.984;21.208;2023-08-07T02:58:09;98668.59;;;14.72;81.57
30949;BME280;17637;51.984;21.208;2023-08-07T03:00:40;98675.06;;;14.76;81.73
30949;BME280;17637;51.984;21.208;2023-08-07T03:03:12;98673.47;;;14.75;80.76
30949;BME280;17637;51.984;21.208;2023-08-07T03:05:51;98688.97;;;14.77;80.96
30949;BME280;17637;51.984;21.208;2023-08-07T03:08:23;98675.28;;;14.28;81.85
30949;BME280;17637;51.984;21.208;2023-08-07T03:10:56;98731.97;;;14.51;80.46
30949;BME280;17637;51.984;21.208;2023-08-07T03:13:28;98704.84;;;14.29;80.94
30949;BME280;17637;51.984;21.208;2023-08-07T03:16:04;98726.84;;;14.58;80.26
30949;BME280;17637;51.984;21.208;2023-08-07T03:18:36;98723.16;;;14.52;80.99
30949;BME280;17637;51.984;21.208;2023-08-07T03:21:08;98709.81;;;14.62;80.76
30949;BME280;17637;51.984;21.208;2023-08-07T03:23:40;98699.75;;;14.36;80.71
30949;BME280;17637;51.984;21.208;2023-08-07T03:26:12;98707.09;;;14.55;80.30
30949;BME280;17637;51.984;21.208;2023-08-07T03:28:47;98715.34;;;14.67;79.25
30949;BME280;17637;51.984;21.208;2023-08-07T03:31:20;98723.94;;;14.76;79.76
30949;BME280;17637;51.984;21.208;2023-08-07T03:33:52;98711.44;;;14.63;79.20
30949;BME280;17637;51.984;21.208;2023-08-07T03:36:25;98739.16;;;14.72;79.66
30949;BME280;17637;51.984;21.208;2023-08-07T03:38:56;98743.31;;;15.05;78.92
30949;BME280;17637;51.984;21.208;2023-08-07T03:41:28;98705.94;;;14.58;79.55
30949;BME280;17637;51.984;21.208;2023-08-07T03:44:00;98726.13;;;14.87;77.83
30949;BME280;17637;51.984;21.208;2023-08-07T03:46:32;98709.25;;;14.75;77.83
30949;BME280;17637;51.984;21.208;2023-08-07T03:49:05;98730.25;;;14.82;79.32
30949;BME280;17637;51.984;21.208;2023-08-07T03:51:37;98713.13;;;14.79;77.49
30949;BME280;17637;51.984;21.208;2023-08-07T03:54:09;98725.75;;;14.75;78.00
30949;BME280;17637;51.984;21.208;2023-08-07T03:56:41;98729.91;;;14.85;76.98
30949;BME280;17637;51.984;21.208;2023-08-07T03:59:13;98730.72;;;14.70;77.53
30949;BME280;17637;51.984;21.208;2023-08-07T04:01:45;98716.19;;;14.68;76.73
30949;BME280;17637;51.984;21.208;2023-08-07T04:04:17;98736.78;;;14.86;76.71
30949;BME280;17637;51.984;21.208;2023-08-07T04:06:49;98676.94;;;14.44;76.95
30949;BME280;17637;51.984;21.208;2023-08-07T04:09:21;98736.06;;;14.92;75.96
30949;BME280;17637;51.984;21.208;2023-08-07T04:11:53;98747.97;;;14.95;76.71
30949;BME280;17637;51.984;21.208;2023-08-07T04:14:25;98731.31;;;14.72;76.96
30949;BME280;17637;51.984;21.208;2023-08-07T04:16:57;98747.81;;;14.96;75.96
30949;BME280;17637;51.984;21.208;2023-08-07T04:19:30;98755.31;;;15.14;74.96
30949;BME280;17637;51.984;21.208;2023-08-07T04:22:01;98754.75;;;15.19;74.38
30949;BME280;17637;51.984;21.208;2023-08-07T04:24:33;98752.66;;;14.99;74.40
30949;BME280;17637;51.984;21.208;2023-08-07T04:27:05;98728.56;;;14.89;75.65
30949;BME280;17637;51.984;21.208;2023-08-07T04:29:37;98739.97;;;15.11;75.01
30949;BME280;17637;51.984;21.208;2023-08-07T04:32:09;98778.13;;;15.05;74.04
30949;BME280;17637;51.984;21.208;2023-08-07T04:34:41;98781.41;;;15.37;73.04
30949;BME280;17637;51.984;21.208;2023-08-07T04:37:13;98779.97;;;15.35;73.41
30949;BME280;17637;51.984;21.208;2023-08-07T04:39:45;98782.22;;;15.23;74.21
30949;BME280;17637;51.984;21.208;2023-08-07T04:42:16;98768.03;;;15.17;73.36
30949;BME280;17637;51.984;21.208;2023-08-07T04:44:48;98770.53;;;15.11;73.99
30949;BME280;17637;51.984;21.208;2023-08-07T04:47:20;98763.00;;;15.31;73.38
30949;BME280;17637;51.984;21.208;2023-08-07T04:49:52;98771.28;;;15.34;73.50
30949;BME280;17637;51.984;21.208;2023-08-07T04:52:25;98769.22;;;15.30;73.29
30949;BME280;17637;51.984;21.208;2023-08-07T04:54:57;98784.63;;;15.39;73.07
30949;BME280;17637;51.984;21.208;2023-08-07T04:57:29;98771.56;;;15.39;74.07
30949;BME280;17637;51.984;21.208;2023-08-07T05:00:01;98778.63;;;15.54;73.45
30949;BME280;17637;51.984;21.208;2023-08-07T05:02:33;98800.44;;;15.61;72.63
30949;BME280;17637;51.984;21.208;2023-08-07T05:05:05;98799.91;;;15.66;72.47
30949;BME280;17637;51.984;21.208;2023-08-07T05:07:37;98800.91;;;15.50;72.86
30949;BME280;17637;51.984;21.208;2023-08-07T05:10:09;98804.50;;;15.64;72.56
30949;BME280;17637;51.984;21.208;2023-08-07T05:12:41;98785.94;;;15.44;73.90
30949;BME280;17637;51.984;21.208;2023-08-07T05:15:13;98808.22;;;15.54;73.12
30949;BME280;17637;51.984;21.208;2023-08-07T05:17:45;98771.47;;;15.48;72.94
30949;BME280;17637;51.984;21.208;2023-08-07T05:20:17;98774.28;;;15.46;72.46
30949;BME280;17637;51.984;21.208;2023-08-07T05:22:49;98786.09;;;15.72;72.31
30949;BME280;17637;51.984;21.208;2023-08-07T05:25:21;98787.19;;;15.63;73.78
30949;BME280;17637;51.984;21.208;2023-08-07T05:27:53;98777.78;;;15.53;74.04
30949;BME280;17637;51.984;21.208;2023-08-07T05:30:25;98786.44;;;15.69;72.84
30949;BME280;17637;51.984;21.208;2023-08-07T05:32:57;98789.16;;;15.61;73.50
30949;BME280;17637;51.984;21.208;2023-08-07T05:35:29;98785.63;;;15.53;74.54
30949;BME280;17637;51.984;21.208;2023-08-07T05:38:00;98792.25;;;15.49;74.25
30949;BME280;17637;51.984;21.208;2023-08-07T05:40:32;98806.66;;;15.30;75.79
30949;BME280;17637;51.984;21.208;2023-08-07T05:43:07;98772.84;;;14.90;77.68
30949;BME280;17637;51.984;21.208;2023-08-07T05:45:40;98764.81;;;14.92;78.88
30949;BME280;17637;51.984;21.208;2023-08-07T05:48:12;98787.13;;;15.03;78.10
30949;BME280;17637;51.984;21.208;2023-08-07T05:50:44;98745.78;;;14.83;77.19
30949;BME280;17637;51.984;21.208;2023-08-07T05:53:15;98763.50;;;14.96;77.32
30949;BME280;17637;51.984;21.208;2023-08-07T05:55:47;98793.66;;;15.22;76.76
30949;BME280;17637;51.984;21.208;2023-08-07T05:58:19;98812.50;;;15.17;78.56
30949;BME280;17637;51.984;21.208;2023-08-07T06:00:51;98793.84;;;15.20;77.69
30949;BME280;17637;51.984;21.208;2023-08-07T06:03:23;98804.75;;;15.24;76.52
30949;BME280;17637;51.984;21.208;2023-08-07T06:05:55;98822.06;;;15.25;77.89
30949;BME280;17637;51.984;21.208;2023-08-07T06:08:26;98789.16;;;15.46;75.67
30949;BME280;17637;51.984;21.208;2023-08-07T06:10:58;98791.72;;;15.84;75.56
30949;BME280;17637;51.984;21.208;2023-08-07T06:13:30;98793.59;;;15.60;75.92
30949;BME280;17637;51.984;21.208;2023-08-07T06:16:07;98791.22;;;15.80;75.10
30949;BME280;17637;51.984;21.208;2023-08-07T06:18:39;98783.75;;;15.62;74.23
30949;BME280;17637;51.984;21.208;2023-08-07T06:21:10;98786.00;;;15.95;73.01
30949;BME280;17637;51.984;21.208;2023-08-07T06:23:42;98769.00;;;16.06;71.20
30949;BME280;17637;51.984;21.208;2023-08-07T06:26:14;98749.16;;;15.97;70.60
30949;BME280;17637;51.984;21.208;2023-08-07T06:28:46;98768.59;;;16.24;71.24
30949;BME280;17637;51.984;21.208;2023-08-07T06:31:18;98782.34;;;16.11;70.04
30949;BME280;17637;51.984;21.208;2023-08-07T06:33:50;98780.16;;;16.30;71.01
30949;BME280;17637;51.984;21.208;2023-08-07T06:36:22;98780.22;;;16.36;69.86
30949;BME280;17637;51.984;21.208;2023-08-07T06:38:54;98767.84;;;16.30;71.12
30949;BME280;17637;51.984;21.208;2023-08-07T06:41:26;98763.09;;;16.19;70.66
30949;BME280;17637;51.984;21.208;2023-08-07T06:43:57;98778.59;;;15.99;70.70
30949;BME280;17637;51.984;21.208;2023-08-07T06:46:29;98773.06;;;16.08;68.45
30949;BME280;17637;51.984;21.208;2023-08-07T06:49:02;98777.34;;;16.75;66.15
30949;BME280;17637;51.984;21.208;2023-08-07T06:51:34;98787.78;;;16.89;63.97
30949;BME280;17637;51.984;21.208;2023-08-07T06:54:09;98787.88;;;17.31;64.10
30949;BME280;17637;51.984;21.208;2023-08-07T06:56:40;98778.50;;;17.15;63.94
30949;BME280;17637;51.984;21.208;2023-08-07T06:59:13;98774.91;;;16.73;63.72
30949;BME280;17637;51.984;21.208;2023-08-07T07:01:45;98800.50;;;16.49;63.20
30949;BME280;17637;51.984;21.208;2023-08-07T07:04:18;98794.22;;;16.65;62.71
30949;BME280;17637;51.984;21.208;2023-08-07T07:06:50;98802.78;;;16.52;61.80
30949;BME280;17637;51.984;21.208;2023-08-07T07:09:22;98792.69;;;16.56;62.81
30949;BME280;17637;51.984;21.208;2023-08-07T07:11:54;98798.78;;;16.56;61.64
30949;BME280;17637;51.984;21.208;2023-08-07T07:14:27;98740.09;;;16.58;61.56
30949;BME280;17637;51.984;21.208;2023-08-07T07:16:59;98810.31;;;17.05;60.45
30949;BME280;17637;51.984;21.208;2023-08-07T07:19:32;98807.09;;;16.82;59.62
30949;BME280;17637;51.984;21.208;2023-08-07T07:22:04;98806.31;;;16.66;60.68
30949;BME280;17637;51.984;21.208;2023-08-07T07:24:36;98817.75;;;16.80;61.40
30949;BME280;17637;51.984;21.208;2023-08-07T07:27:07;98788.94;;;16.22;61.27
30949;BME280;17637;51.984;21.208;2023-08-07T07:29:39;98785.09;;;16.39;61.39
30949;BME280;17637;51.984;21.208;2023-08-07T07:32:11;98790.94;;;16.85;61.89
30949;BME280;17637;51.984;21.208;2023-08-07T07:34:43;98821.00;;;17.04;61.17
30949;BME280;17637;51.984;21.208;2023-08-07T07:37:15;98819.13;;;17.19;61.09
30949;BME280;17637;51.984;21.208;2023-08-07T07:39:48;98828.81;;;17.47;60.14
30949;BME280;17637;51.984;21.208;2023-08-07T07:42:20;98826.31;;;17.11;61.14
30949;BME280;17637;51.984;21.208;2023-08-07T07:44:52;98827.69;;;16.63;61.81
30949;BME280;17637;51.984;21.208;2023-08-07T07:47:24;98829.66;;;16.61;63.31
30949;BME280;17637;51.984;21.208;2023-08-07T07:50:07;98845.47;;;16.68;63.36
30949;BME280;17637;51.984;21.208;2023-08-07T07:52:39;98849.22;;;16.80;63.06
30949;BME280;17637;51.984;21.208;2023-08-07T07:55:11;98821.28;;;16.29;62.77
30949;BME280;17637;51.984;21.208;2023-08-07T07:57:45;98831.91;;;16.43;62.52
30949;BME280;17637;51.984;21.208;2023-08-07T08:00:17;98831.03;;;16.94;62.12
30949;BME280;17637;51.984;21.208;2023-08-07T08:02:49;98828.22;;;17.24;61.33
30949;BME280;17637;51.984;21.208;2023-08-07T08:05:21;98838.88;;;17.44;60.74
30949;BME280;17637;51.984;21.208;2023-08-07T08:07:53;98845.50;;;17.40;60.65
30949;BME280;17637;51.984;21.208;2023-08-07T08:10:25;98857.00;;;17.10;60.46
30949;BME280;17637;51.984;21.208;2023-08-07T08:12:57;98865.81;;;17.02;60.42
30949;BME280;17637;51.984;21.208;2023-08-07T08:15:29;98862.06;;;17.40;61.14
30949;BME280;17637;51.984;21.208;2023-08-07T08:18:01;98864.25;;;17.36;59.05
30949;BME280;17637;51.984;21.208;2023-08-07T08:20:34;98856.69;;;17.83;58.33
30949;BME280;17637;51.984;21.208;2023-08-07T08:23:05;98837.19;;;17.64;57.03
30949;BME280;17637;51.984;21.208;2023-08-07T08:25:37;98847.22;;;18.24;56.42
30949;BME280;17637;51.984;21.208;2023-08-07T08:28:09;98822.25;;;18.07;55.95
30949;BME280;17637;51.984;21.208;2023-08-07T08:30:41;98855.94;;;18.38;55.28
30949;BME280;17637;51.984;21.208;2023-08-07T08:33:13;98840.75;;;17.50;56.81
30949;BME280;17637;51.984;21.208;2023-08-07T08:35:46;98863.59;;;17.91;56.91
30949;BME280;17637;51.984;21.208;2023-08-07T08:38:18;98856.00;;;18.03;56.37
30949;BME280;17637;51.984;21.208;2023-08-07T08:40:51;98833.47;;;18.35;55.56
30949;BME280;17637;51.984;21.208;2023-08-07T08:43:25;98850.78;;;18.78;55.58
30949;BME280;17637;51.984;21.208;2023-08-07T08:45:57;98849.16;;;18.77;54.00
30949;BME280;17637;51.984;21.208;2023-08-07T08:48:34;98861.88;;;18.53;54.75
30949;BME280;17637;51.984;21.208;2023-08-07T08:51:10;98851.94;;;18.56;54.85
30949;BME280;17637;51.984;21.208;2023-08-07T08:53:45;98840.22;;;18.58;54.84
30949;BME280;17637;51.984;21.208;2023-08-07T08:56:18;98851.22;;;18.20;56.28
30949;BME280;17637;51.984;21.208;2023-08-07T08:58:50;98865.50;;;18.59;54.88
30949;BME280;17637;51.984;21.208;2023-08-07T09:01:22;98854.25;;;18.99;54.99
30949;BME280;17637;51.984;21.208;2023-08-07T09:03:57;98871.09;;;19.18;54.28
30949;BME280;17637;51.984;21.208;2023-08-07T09:06:31;98880.78;;;18.97;52.69
30949;BME280;17637;51.984;21.208;2023-08-07T09:09:03;98855.22;;;18.78;53.64
30949;BME280;17637;51.984;21.208;2023-08-07T09:11:36;98892.13;;;19.05;53.72
30949;BME280;17637;51.984;21.208;2023-08-07T09:14:09;98883.56;;;18.82;53.95
30949;BME280;17637;51.984;21.208;2023-08-07T09:16:47;98890.31;;;18.98;52.76
30949;BME280;17637;51.984;21.208;2023-08-07T09:19:23;98890.09;;;19.20;53.45
30949;BME280;17637;51.984;21.208;2023-08-07T09:21:55;98897.03;;;19.34;53.47
30949;BME280;17637;51.984;21.208;2023-08-07T09:24:27;98891.31;;;19.58;51.96
30949;BME280;17637;51.984;21.208;2023-08-07T09:26:59;98892.13;;;19.72;52.59
30949;BME280;17637;51.984;21.208;2023-08-07T09:29:31;98898.63;;;19.49;50.98
30949;BME280;17637;51.984;21.208;2023-08-07T09:32:11;98909.31;;;19.94;51.01
30949;BME280;17637;51.984;21.208;2023-08-07T09:34:44;98916.47;;;19.54;50.06
30949;BME280;17637;51.984;21.208;2023-08-07T09:37:16;98917.88;;;19.83;49.54
30949;BME280;17637;51.984;21.208;2023-08-07T09:39:47;98911.19;;;19.60;50.19
30949;BME280;17637;51.984;21.208;2023-08-07T09:42:19;98909.56;;;19.32;49.70
30949;BME280;17637;51.984;21.208;2023-08-07T09:44:52;98928.19;;;19.71;50.55
30949;BME280;17637;51.984;21.208;2023-08-07T09:47:23;98898.59;;;19.62;50.30
30949;BME280;17637;51.984;21.208;2023-08-07T09:49:55;98935.84;;;20.13;49.76
30949;BME280;17637;51.984;21.208;2023-08-07T09:52:27;98884.38;;;19.97;47.72
30949;BME280;17637;51.984;21.208;2023-08-07T09:55:00;98920.41;;;20.69;48.48
30949;BME280;17637;51.984;21.208;2023-08-07T09:57:32;98944.97;;;20.17;48.31
30949;BME280;17637;51.984;21.208;2023-08-07T10:00:08;98936.88;;;20.64;47.70
30949;BME280;17637;51.984;21.208;2023-08-07T10:02:43;98947.00;;;20.74;48.64
30949;BME280;17637;51.984;21.208;2023-08-07T10:05:16;98932.13;;;20.41;47.93
30949;BME280;17637;51.984;21.208;2023-08-07T10:07:48;98953.50;;;19.79;48.25
30949;BME280;17637;51.984;21.208;2023-08-07T10:10:23;98945.84;;;19.71;49.04
30949;BME280;17637;51.984;21.208;2023-08-07T10:12:59;98938.53;;;19.86;48.91
30949;BME280;17637;51.984;21.208;2023-08-07T10:15:33;98950.09;;;19.98;48.75
30949;BME280;17637;51.984;21.208;2023-08-07T10:18:06;98945.00;;;19.70;48.88
30949;BME280;17637;51.984;21.208;2023-08-07T10:20:38;98960.00;;;19.76;48.53
30949;BME280;17637;51.984;21.208;2023-08-07T10:23:14;98953.50;;;19.25;48.62
30949;BME280;17637;51.984;21.208;2023-08-07T10:25:50;98956.75;;;19.27;48.81
30949;BME280;17637;51.984;21.208;2023-08-07T10:28:24;98945.03;;;19.50;48.97
30949;BME280;17637;51.984;21.208;2023-08-07T10:31:01;98958.56;;;19.20;49.66
30949;BME280;17637;51.984;21.208;2023-08-07T10:33:33;98960.63;;;19.38;50.07
30949;BME280;17637;51.984;21.208;2023-08-07T10:36:09;98957.75;;;19.20;50.10
30949;BME280;17637;51.984;21.208;2023-08-07T10:38:42;98962.25;;;19.26;50.71
30949;BME280;17637;51.984;21.208;2023-08-07T10:41:14;98967.91;;;19.43;50.49
30949;BME280;17637;51.984;21.208;2023-08-07T10:43:46;98943.38;;;19.35;50.33
30949;BME280;17637;51.984;21.208;2023-08-07T10:46:20;98962.25;;;19.59;49.68
30949;BME280;17637;51.984;21.208;2023-08-07T10:48:56;98958.00;;;19.85;49.00
30949;BME280;17637;51.984;21.208;2023-08-07T10:51:32;98970.31;;;20.18;46.68
30949;BME280;17637;51.984;21.208;2023-08-07T10:54:03;98967.75;;;20.70;46.10
30949;BME280;17637;51.984;21.208;2023-08-07T10:56:35;98970.28;;;20.90;45.13
30949;BME280;17637;51.984;21.208;2023-08-07T10:59:12;98970.16;;;20.65;44.52
30949;BME280;17637;51.984;21.208;2023-08-07T11:01:50;98964.25;;;20.83;44.48
30949;BME280;17637;51.984;21.208;2023-08-07T11:04:23;98972.34;;;20.16;46.51
30949;BME280;17637;51.984;21.208;2023-08-07T11:06:58;98975.00;;;19.49;46.64
30949;BME280;17637;51.984;21.208;2023-08-07T11:09:33;98961.22;;;19.40;47.18
30949;BME280;17637;51.984;21.208;2023-08-07T11:12:05;98953.28;;;18.93;47.81
30949;BME280;17637;51.984;21.208;2023-08-07T11:14:37;98975.78;;;19.16;47.74
30949;BME280;17637;51.984;21.208;2023-08-07T11:17:10;98957.09;;;18.91;47.16
30949;BME280;17637;51.984;21.208;2023-08-07T11:19:41;98979.63;;;19.20;46.99
30949;BME280;17637;51.984;21.208;2023-08-07T11:22:15;98983.66;;;19.09;46.53
30949;BME280;17637;51.984;21.208;2023-08-07T11:24:48;98951.50;;;19.14;46.38
30949;BME280;17637;51.984;21.208;2023-08-07T11:27:21;98972.19;;;19.84;46.24
30949;BME280;17637;51.984;21.208;2023-08-07T11:29:54;98983.44;;;20.45;46.08
30949;BME280;17637;51.984;21.208;2023-08-07T11:32:26;98981.28;;;20.08;45.55
30949;BME280;17637;51.984;21.208;2023-08-07T11:34:58;98975.75;;;20.30;44.66
30949;BME280;17637;51.984;21.208;2023-08-07T11:37:30;98959.78;;;20.18;45.09
30949;BME280;17637;51.984;21.208;2023-08-07T11:40:03;98966.22;;;20.36;46.36
30949;BME280;17637;51.984;21.208;2023-08-07T11:42:35;98979.63;;;20.27;45.18
30949;BME280;17637;51.984;21.208;2023-08-07T11:45:07;98976.03;;;19.55;44.96
30949;BME280;17637;51.984;21.208;2023-08-07T11:47:40;98976.63;;;19.63;46.15
30949;BME280;17637;51.984;21.208;2023-08-07T11:50:12;98980.69;;;19.99;45.98
30949;BME280;17637;51.984;21.208;2023-08-07T11:52:44;98953.13;;;19.62;46.01
30949;BME280;17637;51.984;21.208;2023-08-07T11:55:17;98980.81;;;20.31;46.62
30949;BME280;17637;51.984;21.208;2023-08-07T11:57:49;98968.22;;;20.40;44.80
30949;BME280;17637;51.984;21.208;2023-08-07T12:00:25;98989.22;;;20.74;45.66
30949;BME280;17637;51.984;21.208;2023-08-07T12:02:58;98980.72;;;20.72;44.28
30949;BME280;17637;51.984;21.208;2023-08-07T12:05:38;98980.78;;;21.04;44.74
30949;BME280;17637;51.984;21.208;2023-08-07T12:08:11;98975.84;;;21.07;42.27
30949;BME280;17637;51.984;21.208;2023-08-07T12:10:43;98981.78;;;20.51;44.23
30949;BME280;17637;51.984;21.208;2023-08-07T12:13:16;98979.28;;;20.69;44.09
30949;BME280;17637;51.984;21.208;2023-08-07T12:15:51;98988.53;;;20.40;44.98
30949;BME280;17637;51.984;21.208;2023-08-07T12:18:23;98989.97;;;20.36;45.50
30949;BME280;17637;51.984;21.208;2023-08-07T12:21:00;98996.34;;;20.73;45.59
30949;BME280;17637;51.984;21.208;2023-08-07T12:23:33;98950.78;;;20.46;44.99
30949;BME280;17637;51.984;21.208;2023-08-07T12:26:06;99013.63;;;20.56;46.45
30949;BME280;17637;51.984;21.208;2023-08-07T12:28:38;99002.59;;;19.87;46.65
30949;BME280;17637;51.984;21.208;2023-08-07T12:31:10;98976.03;;;19.68;47.13
30949;BME280;17637;51.984;21.208;2023-08-07T12:33:42;99016.59;;;19.87;47.28
30949;BME280;17637;51.984;21.208;2023-08-07T12:36:14;98980.09;;;19.77;46.86
30949;BME280;17637;51.984;21.208;2023-08-07T12:38:49;99025.47;;;20.40;46.87
30949;BME280;17637;51.984;21.208;2023-08-07T12:41:21;99035.69;;;20.81;46.46
30949;BME280;17637;51.984;21.208;2023-08-07T12:43:56;99019.81;;;21.34;46.34
30949;BME280;17637;51.984;21.208;2023-08-07T12:46:27;99021.28;;;20.84;43.72
30949;BME280;17637;51.984;21.208;2023-08-07T12:49:03;99012.72;;;21.27;44.41
30949;BME280;17637;51.984;21.208;2023-08-07T12:51:34;98983.97;;;20.67;43.45
30949;BME280;17637;51.984;21.208;2023-08-07T12:54:06;99024.91;;;20.90;43.09
30949;BME280;17637;51.984;21.208;2023-08-07T12:56:38;99038.00;;;20.58;43.89
30949;BME280;17637;51.984;21.208;2023-08-07T12:59:10;99024.69;;;20.26;43.56
30949;BME280;17637;51.984;21.208;2023-08-07T13:01:42;99047.81;;;20.10;44.54
30949;BME280;17637;51.984;21.208;2023-08-07T13:04:15;99055.94;;;19.82;45.36
30949;BME280;17637;51.984;21.208;2023-08-07T13:06:48;99050.63;;;19.48;46.36
30949;BME280;17637;51.984;21.208;2023-08-07T13:09:21;99056.94;;;19.74;46.56
30949;BME280;17637;51.984;21.208;2023-08-07T13:11:53;99043.91;;;19.46;46.96
30949;BME280;17637;51.984;21.208;2023-08-07T13:14:25;99024.69;;;19.65;45.67
30949;BME280;17637;51.984;21.208;2023-08-07T13:16:57;99033.97;;;19.48;45.90
30949;BME280;17637;51.984;21.208;2023-08-07T13:19:29;99057.13;;;19.79;44.79
30949;BME280;17637;51.984;21.208;2023-08-07T13:22:01;99056.34;;;19.99;44.01